Time;durP1;ratioP1;P1;durP2;ratioP2;P2;SDS_P1;SDS_P2;PMS_P1;PMS_P2;Temp;Humidity;BMP_temperature;BMP_pressure;BME280_temperature;BME280_humidity;BME280_pressure;Samples;Min_cycle;Max_cycle;Signal;HPM_P1;HPM_P2
2023/05/13 00:01:00;;;;;;;;;;;;;;;20.93;nan;102206.66;5002546;28;19948;-95
2023/05/13 00:03:25;;;;;;;;;;;;;;;20.88;nan;102208.59;5003098;28;20020;-94
2023/05/13 00:05:50;;;;;;;;;;;;;;;20.86;nan;102205.34;5001891;28;20318;-95
2023/05/13 00:08:16;;;;;;;;;;;;;;;20.88;nan;102203.16;5000013;28;19918;-95
2023/05/13 00:10:41;;;;;;;;;;;;;;;20.89;nan;102199.34;5005613;28;19987;-95
2023/05/13 00:13:07;;;;;;;;;;;;;;;20.87;nan;102201.53;5004562;28;19921;-94
2023/05/13 00:15:32;;;;;;;;;;;;;;;20.86;nan;102205.34;5004322;28;19945;-95
2023/05/13 00:17:57;;;;;;;;;;;;;;;20.85;nan;102206.44;5004916;28;19917;-94
2023/05/13 00:20:23;;;;;;;;;;;;;;;20.79;nan;102200.19;4998817;28;20309;-94
2023/05/13 00:22:48;;;;;;;;;;;;;;;20.76;nan;102201.59;5006312;28;19921;-93
2023/05/13 00:25:13;;;;;;;;;;;;;;;20.72;nan;102208.69;5007898;28;19968;-94
2023/05/13 00:27:39;;;;;;;;;;;;;;;20.70;nan;102212.78;5003650;28;19933;-95
2023/05/13 00:30:05;;;;;;;;;;;;;;;20.68;nan;102213.09;5001853;28;19953;-95
2023/05/13 00:32:30;;;;;;;;;;;;;;;20.65;nan;102208.19;5000413;28;19957;-96
2023/05/13 00:34:55;;;;;;;;;;;;;;;20.66;nan;102211.72;5003572;28;19918;-94
2023/05/13 00:37:21;;;;;;;;;;;;;;;20.67;nan;102207.91;5003856;28;19948;-94
2023/05/13 00:39:46;;;;;;;;;;;;;;;20.66;nan;102215.28;5001672;28;19937;-93
2023/05/13 00:42:12;;;;;;;;;;;;;;;20.64;nan;102214.72;5001028;28;19921;-96
2023/05/13 00:44:38;;;;;;;;;;;;;;;20.63;nan;102215.81;5000626;28;20017;-94
2023/05/13 00:47:04;;;;;;;;;;;;;;;20.64;nan;102219.34;5003946;28;19949;-94
2023/05/13 00:49:31;;;;;;;;;;;;;;;20.64;nan;102222.88;5005554;28;19917;-94
2023/05/13 00:51:56;;;;;;;;;;;;;;;20.62;nan;102221.53;5005151;28;19964;-94
2023/05/13 00:54:21;;;;;;;;;;;;;;;20.57;nan;102227.81;5001555;28;19929;-93
2023/05/13 00:56:47;;;;;;;;;;;;;;;20.53;nan;102226.75;5000631;28;20245;-94
2023/05/13 00:59:12;;;;;;;;;;;;;;;20.50;nan;102222.69;5003070;28;20479;-94
2023/05/13 01:01:43;;;;;;;;;;;;;;;20.47;nan;102225.16;5001185;28;20707;-93
2023/05/13 01:04:17;;;;;;;;;;;;;;;20.44;nan;102231.13;5003568;28;19980;-94
2023/05/13 01:06:55;;;;;;;;;;;;;;;20.41;nan;102231.72;5001310;28;19922;-92
2023/05/13 01:09:30;;;;;;;;;;;;;;;20.39;nan;102233.88;4999650;28;19925;-94
2023/05/13 01:11:58;;;;;;;;;;;;;;;20.37;nan;102239.59;5001195;28;20016;-93
2023/05/13 01:14:28;;;;;;;;;;;;;;;20.33;nan;102232.25;4995422;28;19933;-94
2023/05/13 01:17:05;;;;;;;;;;;;;;;20.27;nan;102241.50;4999103;28;20141;-94
2023/05/13 01:19:37;;;;;;;;;;;;;;;20.21;nan;102241.53;4996415;28;20480;-94
2023/05/13 01:22:03;;;;;;;;;;;;;;;20.17;nan;102243.19;4995914;28;19925;-94
2023/05/13 01:24:29;;;;;;;;;;;;;;;20.13;nan;102242.13;5009538;28;19932;-94
2023/05/13 01:26:54;;;;;;;;;;;;;;;20.08;nan;102244.00;4995778;28;19925;-94
2023/05/13 01:29:19;;;;;;;;;;;;;;;20.03;nan;102247.56;4998069;28;19936;-94
2023/05/13 01:31:45;;;;;;;;;;;;;;;19.99;nan;102254.66;4999790;28;20411;-94
2023/05/13 01:34:12;;;;;;;;;;;;;;;19.94;nan;102254.66;4995666;28;20081;-95
2023/05/13 01:36:38;;;;;;;;;;;;;;;19.88;nan;102251.13;4994955;28;19948;-93
2023/05/13 01:39:03;;;;;;;;;;;;;;;19.82;nan;102257.66;5000262;28;20285;-93
2023/05/13 01:41:29;;;;;;;;;;;;;;;19.72;nan;102256.84;4996802;28;19928;-95
2023/05/13 01:43:54;;;;;;;;;;;;;;;19.62;nan;102252.25;4995675;28;20080;-93
2023/05/13 01:46:20;;;;;;;;;;;;;;;19.54;nan;102260.94;5002182;28;19925;-93
2023/05/13 01:48:45;;;;;;;;;;;;;;;19.49;nan;102269.06;4998364;28;20352;-94
2023/05/13 01:51:10;;;;;;;;;;;;;;;19.45;nan;102271.50;4998179;28;19932;-94
2023/05/13 01:53:36;;;;;;;;;;;;;;;19.39;nan;102264.44;4999527;28;19933;-94
2023/05/13 01:56:01;;;;;;;;;;;;;;;19.33;nan;102262.78;5000769;28;20385;-94
2023/05/13 01:58:26;;;;;;;;;;;;;;;19.26;nan;102262.25;5003048;28;20400;-94
2023/05/13 02:00:52;;;;;;;;;;;;;;;19.21;nan;102265.78;5002784;28;20377;-93
2023/05/13 02:03:17;;;;;;;;;;;;;;;19.17;nan;102267.38;5003653;28;19938;-94
2023/05/13 02:05:42;;;;;;;;;;;;;;;19.13;nan;102266.28;5002439;28;19929;-94
2023/05/13 02:08:08;;;;;;;;;;;;;;;19.08;nan;102262.75;5003909;28;20411;-95
2023/05/13 02:10:33;;;;;;;;;;;;;;;19.03;nan;102271.72;5003029;28;19917;-94
2023/05/13 02:12:58;;;;;;;;;;;;;;;18.98;nan;102275.22;5000504;28;19933;-94
2023/05/13 02:15:24;;;;;;;;;;;;;;;18.96;nan;102269.22;4999905;28;20494;-94
2023/05/13 02:17:50;;;;;;;;;;;;;;;18.93;nan;102271.69;4999566;28;20035;-94
2023/05/13 02:20:15;;;;;;;;;;;;;;;18.89;nan;102268.69;4999925;28;19925;-94
2023/05/13 02:22:41;;;;;;;;;;;;;;;18.88;nan;102266.22;4998061;28;20344;-94
2023/05/13 02:25:06;;;;;;;;;;;;;;;18.83;nan;102271.63;4996720;28;19953;-95
2023/05/13 02:27:32;;;;;;;;;;;;;;;18.78;nan;102258.84;5001937;28;19923;-95
2023/05/13 02:29:57;;;;;;;;;;;;;;;18.74;nan;102276.78;5001980;28;20370;-95
2023/05/13 02:32:22;;;;;;;;;;;;;;;18.70;nan;102281.91;5003421;28;20000;-93
2023/05/13 02:34:48;;;;;;;;;;;;;;;18.66;nan;102269.13;4998642;28;20418;-94
2023/05/13 02:37:13;;;;;;;;;;;;;;;18.64;nan;102269.38;4998613;28;19925;-94
2023/05/13 02:39:38;;;;;;;;;;;;;;;18.61;nan;102277.22;5002824;28;19922;-94
2023/05/13 02:42:04;;;;;;;;;;;;;;;18.58;nan;102280.47;5001448;28;19922;-94
2023/05/13 02:44:29;;;;;;;;;;;;;;;18.53;nan;102269.59;5005007;28;19918;-95
2023/05/13 02:46:55;;;;;;;;;;;;;;;18.44;nan;102274.69;5003793;28;20073;-95
2023/05/13 02:49:20;;;;;;;;;;;;;;;18.38;nan;102279.28;5001164;28;19918;-94
2023/05/13 02:51:45;;;;;;;;;;;;;;;18.33;nan;102273.84;5004397;28;19955;-94
2023/05/13 02:54:10;;;;;;;;;;;;;;;18.27;nan;102274.88;5002288;28;19931;-94
2023/05/13 02:56:36;;;;;;;;;;;;;;;18.22;nan;102276.75;5004154;28;19924;-94
2023/05/13 02:59:01;;;;;;;;;;;;;;;18.15;nan;102287.84;5007019;28;19925;-94
2023/05/13 03:01:26;;;;;;;;;;;;;;;18.10;nan;102282.34;5009324;28;19925;-94
2023/05/13 03:03:52;;;;;;;;;;;;;;;18.06;nan;102281.25;5005671;28;20036;-94
2023/05/13 03:06:17;;;;;;;;;;;;;;;18.00;nan;102285.84;5006455;28;19917;-94
2023/05/13 03:08:43;;;;;;;;;;;;;;;17.98;nan;102282.56;5004504;28;20451;-93
2023/05/13 03:11:08;;;;;;;;;;;;;;;17.97;nan;102280.13;5003756;28;19925;-94
2023/05/13 03:13:33;;;;;;;;;;;;;;;17.94;nan;102295.00;4999132;28;19921;-95
2023/05/13 03:15:58;;;;;;;;;;;;;;;17.95;nan;102290.38;5005445;28;19960;-94
2023/05/13 03:18:24;;;;;;;;;;;;;;;17.94;nan;102291.47;5007038;28;19961;-94
2023/05/13 03:20:49;;;;;;;;;;;;;;;17.94;nan;102291.47;4998900;28;20072;-95
2023/05/13 03:23:15;;;;;;;;;;;;;;;17.95;nan;102295.81;4999535;28;19928;-94
2023/05/13 03:25:40;;;;;;;;;;;;;;;17.94;nan;102297.69;5004824;28;19924;-94
2023/05/13 03:28:07;;;;;;;;;;;;;;;17.93;nan;102300.66;5002575;28;19961;-94
2023/05/13 03:30:32;;;;;;;;;;;;;;;17.90;nan;102303.91;4999700;28;20160;-95
2023/05/13 03:32:58;;;;;;;;;;;;;;;17.88;nan;102297.94;5000793;28;19917;-95
2023/05/13 03:35:23;;;;;;;;;;;;;;;17.86;nan;102303.63;5002426;28;20124;-93
2023/05/13 03:37:48;;;;;;;;;;;;;;;17.83;nan;102306.84;5002912;28;20008;-93
2023/05/13 03:40:14;;;;;;;;;;;;;;;17.80;nan;102307.38;5001286;28;20017;-94
2023/05/13 03:42:39;;;;;;;;;;;;;;;17.74;nan;102302.97;5001615;28;20408;-95
2023/05/13 03:45:05;;;;;;;;;;;;;;;17.72;nan;102316.78;4999956;28;19922;-94
2023/05/13 03:47:30;;;;;;;;;;;;;;;17.68;nan;102321.09;4998975;28;19926;-94
2023/05/13 03:49:55;;;;;;;;;;;;;;;17.67;nan;102321.31;4999311;28;20555;-94
2023/05/13 03:52:21;;;;;;;;;;;;;;;17.67;nan;102322.13;5003235;28;20357;-94
2023/05/13 03:54:46;;;;;;;;;;;;;;;17.69;nan;102317.28;4999734;28;19925;-94
2023/05/13 03:57:11;;;;;;;;;;;;;;;17.68;nan;102318.38;5003127;28;19933;-95
2023/05/13 03:59:37;;;;;;;;;;;;;;;17.72;nan;102316.78;5002194;28;19926;-94
2023/05/13 04:02:02;;;;;;;;;;;;;;;17.78;nan;102321.19;5001213;28;19925;-95
2023/05/13 04:04:27;;;;;;;;;;;;;;;17.85;nan;102326.38;5006245;28;19932;-93
2023/05/13 04:06:53;;;;;;;;;;;;;;;17.90;nan;102326.41;5003352;28;20435;-94
2023/05/13 04:09:18;;;;;;;;;;;;;;;17.94;nan;102327.53;5000117;28;19917;-94
2023/05/13 04:11:43;;;;;;;;;;;;;;;17.97;nan;102334.34;5000092;28;19918;-95
2023/05/13 04:14:09;;;;;;;;;;;;;;;18.00;nan;102336.53;5006145;28;19918;-94
2023/05/13 04:16:34;;;;;;;;;;;;;;;18.03;nan;102336.03;5005010;28;19921;-95
2023/05/13 04:19:00;;;;;;;;;;;;;;;18.07;nan;102347.97;5003746;28;20439;-94
2023/05/13 04:21:25;;;;;;;;;;;;;;;18.09;nan;102349.34;5003005;28;19925;-95
2023/05/13 04:23:50;;;;;;;;;;;;;;;18.12;nan;102345.28;5005177;28;20325;-95
2023/05/13 04:26:16;;;;;;;;;;;;;;;18.14;nan;102345.88;5007323;28;19922;-94
2023/05/13 04:28:41;;;;;;;;;;;;;;;18.18;nan;102355.13;4997736;28;20361;-95
2023/05/13 04:31:06;;;;;;;;;;;;;;;18.20;nan;102350.25;5005419;28;20412;-94
2023/05/13 04:33:32;;;;;;;;;;;;;;;18.27;nan;102356.25;5003476;28;19921;-95
2023/05/13 04:35:57;;;;;;;;;;;;;;;18.32;nan;102350.91;5002469;28;19952;-94
2023/05/13 04:38:23;;;;;;;;;;;;;;;18.33;nan;102347.09;5004565;28;19917;-94
2023/05/13 04:40:48;;;;;;;;;;;;;;;18.35;nan;102350.38;5004024;28;20476;-95
2023/05/13 04:43:13;;;;;;;;;;;;;;;18.37;nan;102356.34;4992065;28;20646;-94
2023/05/13 04:45:39;;;;;;;;;;;;;;;18.42;nan;102352.84;4996238;28;19953;-94
2023/05/13 04:48:05;;;;;;;;;;;;;;;18.51;nan;102358.63;4997325;28;19922;-94
2023/05/13 04:50:30;;;;;;;;;;;;;;;18.61;nan;102367.63;5004974;28;20016;-95
2023/05/13 04:52:56;;;;;;;;;;;;;;;18.73;nan;102358.50;5002219;28;19953;-94
2023/05/13 04:55:21;;;;;;;;;;;;;;;18.88;nan;102362.09;4999346;28;19921;-94
2023/05/13 04:57:46;;;;;;;;;;;;;;;19.00;nan;102365.41;4998415;28;19968;-94
2023/05/13 05:00:12;;;;;;;;;;;;;;;19.15;nan;102370.06;5001458;28;19929;-94
2023/05/13 05:02:37;;;;;;;;;;;;;;;19.26;nan;102362.78;5005245;28;19917;-93
2023/05/13 05:05:04;;;;;;;;;;;;;;;19.38;nan;102359.81;4998283;28;19928;-94
2023/05/13 05:07:30;;;;;;;;;;;;;;;19.51;nan;102362.84;5001213;28;19929;-94
2023/05/13 05:09:55;;;;;;;;;;;;;;;19.64;nan;102366.16;5000965;28;19922;-94
2023/05/13 05:12:21;;;;;;;;;;;;;;;19.74;nan;102368.88;4999753;28;20175;-94
2023/05/13 05:14:46;;;;;;;;;;;;;;;19.85;nan;102370.53;4999068;28;20047;-94
2023/05/13 05:17:11;;;;;;;;;;;;;;;19.97;nan;102373.00;5000429;28;20414;-94
2023/05/13 05:19:37;;;;;;;;;;;;;;;20.09;nan;102379.78;4996551;28;20269;-93
2023/05/13 05:22:02;;;;;;;;;;;;;;;20.21;nan;102383.06;4997459;28;19921;-93
2023/05/13 05:24:27;;;;;;;;;;;;;;;20.33;nan;102373.81;4998602;28;19922;-94
2023/05/13 05:26:53;;;;;;;;;;;;;;;20.46;nan;102375.97;5001869;28;19984;-95
2023/05/13 05:29:18;;;;;;;;;;;;;;;20.58;nan;102373.78;4999522;28;19925;-95
2023/05/13 05:31:44;;;;;;;;;;;;;;;20.69;nan;102369.13;5001958;28;20348;-94
2023/05/13 05:34:09;;;;;;;;;;;;;;;20.81;nan;102384.06;4999053;28;20428;-94
2023/05/13 05:36:35;;;;;;;;;;;;;;;20.93;nan;102381.03;4999148;28;19925;-94
2023/05/13 05:39:00;;;;;;;;;;;;;;;21.07;nan;102378.53;5002093;28;19930;-94
2023/05/13 05:41:25;;;;;;;;;;;;;;;21.19;nan;102384.47;5002865;28;19975;-95
2023/05/13 05:43:51;;;;;;;;;;;;;;;21.30;nan;102385.25;4997759;28;19965;-94
2023/05/13 05:46:16;;;;;;;;;;;;;;;21.44;nan;102382.75;4999234;28;19921;-94
2023/05/13 05:48:41;;;;;;;;;;;;;;;21.58;nan;102386.47;5000550;28;19921;-95
2023/05/13 05:51:07;;;;;;;;;;;;;;;21.68;nan;102383.66;5001214;28;19922;-93
2023/05/13 05:53:34;;;;;;;;;;;;;;;21.80;nan;102388.78;4998546;28;20377;-93
2023/05/13 05:55:59;;;;;;;;;;;;;;;21.93;nan;102388.13;4997396;28;19921;-95
2023/05/13 05:58:25;;;;;;;;;;;;;;;22.06;nan;102383.94;4997550;28;19928;-93
2023/05/13 06:00:51;;;;;;;;;;;;;;;22.18;nan;102387.94;5005441;28;19922;-94
2023/05/13 06:03:16;;;;;;;;;;;;;;;22.30;nan;102380.19;4999349;28;19940;-93
2023/05/13 06:05:42;;;;;;;;;;;;;;;22.43;nan;102388.81;4997972;28;20017;-94
2023/05/13 06:08:07;;;;;;;;;;;;;;;22.55;nan;102389.22;4997328;28;19925;-93
2023/05/13 06:10:32;;;;;;;;;;;;;;;22.69;nan;102392.91;5002446;28;19917;-96
2023/05/13 06:12:58;;;;;;;;;;;;;;;22.82;nan;102388.72;4997852;28;19964;-93
2023/05/13 06:15:23;;;;;;;;;;;;;;;22.95;nan;102392.63;4999016;28;20389;-94
2023/05/13 06:17:48;;;;;;;;;;;;;;;23.08;nan;102392.75;4997801;28;19918;-93
2023/05/13 06:20:14;;;;;;;;;;;;;;;23.20;nan;102384.94;4996908;28;20077;-94
2023/05/13 06:22:40;;;;;;;;;;;;;;;23.35;nan;102391.31;5001766;28;19922;-93
2023/05/13 06:25:05;;;;;;;;;;;;;;;23.46;nan;102387.31;4998977;28;20538;-93
2023/05/13 06:27:32;;;;;;;;;;;;;;;23.59;nan;102394.03;4998828;28;19925;-93
2023/05/13 06:29:58;;;;;;;;;;;;;;;23.69;nan;102391.94;5002932;28;20392;-95
2023/05/13 06:32:23;;;;;;;;;;;;;;;23.81;nan;102386.81;5006665;28;19940;-93
2023/05/13 06:34:51;;;;;;;;;;;;;;;23.90;nan;102381.50;5006335;28;19917;-92
2023/05/13 06:37:16;;;;;;;;;;;;;;;24.02;nan;102386.47;5001647;28;19921;-91
2023/05/13 06:39:41;;;;;;;;;;;;;;;24.14;nan;102384.09;5003591;28;19932;-92
2023/05/13 06:42:07;;;;;;;;;;;;;;;24.29;nan;102388.53;5002651;28;19917;-92
2023/05/13 06:44:32;;;;;;;;;;;;;;;24.43;nan;102377.59;4999103;28;19936;-92
2023/05/13 06:46:57;;;;;;;;;;;;;;;24.58;nan;102377.28;5000935;28;20071;-90
2023/05/13 06:49:23;;;;;;;;;;;;;;;24.74;nan;102375.88;5004600;28;20393;-92
2023/05/13 06:51:49;;;;;;;;;;;;;;;24.90;nan;102371.72;5002348;28;19985;-92
2023/05/13 06:54:15;;;;;;;;;;;;;;;25.07;nan;102376.59;5003607;28;19929;-92
2023/05/13 06:56:40;;;;;;;;;;;;;;;25.21;nan;102382.06;5001383;28;19918;-92
2023/05/13 06:59:05;;;;;;;;;;;;;;;25.32;nan;102371.69;4998541;28;19925;-91
2023/05/13 07:01:31;;;;;;;;;;;;;;;25.45;nan;102377.13;5001917;28;19933;-92
2023/05/13 07:03:56;;;;;;;;;;;;;;;25.59;nan;102377.91;4999674;28;19940;-91
2023/05/13 07:06:21;;;;;;;;;;;;;;;25.71;nan;102382.88;5006633;28;19937;-95
2023/05/13 07:08:47;;;;;;;;;;;;;;;25.81;nan;102379.88;5005579;28;21229;-94
2023/05/13 07:11:12;;;;;;;;;;;;;;;25.94;nan;102375.44;5006835;28;19921;-90
2023/05/13 07:13:37;;;;;;;;;;;;;;;26.05;nan;102374.09;5007010;28;19941;-92
2023/05/13 07:16:03;;;;;;;;;;;;;;;26.16;nan;102380.09;5004828;28;20043;-96
2023/05/13 07:18:28;;;;;;;;;;;;;;;26.23;nan;102376.94;5006609;28;19918;-96
2023/05/13 07:20:55;;;;;;;;;;;;;;;26.34;nan;102370.84;5007514;28;20020;-96
2023/05/13 07:23:21;;;;;;;;;;;;;;;26.47;nan;102374.66;5000458;28;19917;-95
2023/05/13 07:25:46;;;;;;;;;;;;;;;26.59;nan;102382.31;5005867;28;19939;-96
2023/05/13 07:28:12;;;;;;;;;;;;;;;26.67;nan;102376.84;5003020;28;19947;-94
2023/05/13 07:30:39;;;;;;;;;;;;;;;26.74;nan;102370.84;5007331;28;20338;-93
2023/05/13 07:33:04;;;;;;;;;;;;;;;26.80;nan;102367.66;5009658;28;19918;-92
2023/05/13 07:35:29;;;;;;;;;;;;;;;26.94;nan;102366.72;5004254;28;19952;-91
2023/05/13 07:37:55;;;;;;;;;;;;;;;26.99;nan;102364.63;5000405;28;19921;-88
2023/05/13 07:40:20;;;;;;;;;;;;;;;27.12;nan;102362.91;4997757;28;19930;-88
2023/05/13 07:42:46;;;;;;;;;;;;;;;27.27;nan;102364.38;5000070;28;19921;-88
2023/05/13 07:45:11;;;;;;;;;;;;;;;27.39;nan;102370.84;4999468;28;19952;-90
2023/05/13 07:47:36;;;;;;;;;;;;;;;27.48;nan;102368.13;4999453;28;19976;-90
2023/05/13 07:50:02;;;;;;;;;;;;;;;27.59;nan;102363.09;5003002;28;19980;-88
2023/05/13 07:52:27;;;;;;;;;;;;;;;27.73;nan;102360.19;4997081;28;19973;-90
2023/05/13 07:54:53;;;;;;;;;;;;;;;27.87;nan;102363.59;5000813;28;19921;-90
2023/05/13 07:57:18;;;;;;;;;;;;;;;27.97;nan;102361.28;4997090;28;20017;-90
2023/05/13 07:59:44;;;;;;;;;;;;;;;28.07;nan;102365.66;5001341;28;20113;-87
2023/05/13 08:02:09;;;;;;;;;;;;;;;28.16;nan;102354.59;4998539;28;19917;-87
2023/05/13 08:04:35;;;;;;;;;;;;;;;28.30;nan;102360.75;4997117;28;19934;-87
2023/05/13 08:07:00;;;;;;;;;;;;;;;28.43;nan;102351.44;5001016;28;20348;-89
2023/05/13 08:09:26;;;;;;;;;;;;;;;28.54;nan;102347.16;5000711;28;20393;-88
2023/05/13 08:11:51;;;;;;;;;;;;;;;28.62;nan;102344.72;5001353;28;19918;-89
2023/05/13 08:14:16;;;;;;;;;;;;;;;28.67;nan;102344.50;4994494;28;20419;-86
2023/05/13 08:16:42;;;;;;;;;;;;;;;28.77;nan;102346.91;4994019;28;19965;-87
2023/05/13 08:19:07;;;;;;;;;;;;;;;28.88;nan;102345.38;5000068;28;20092;-88
2023/05/13 08:21:33;;;;;;;;;;;;;;;29.02;nan;102350.66;4997918;28;19918;-88
2023/05/13 08:23:58;;;;;;;;;;;;;;;29.10;nan;102353.38;5000907;28;19949;-89
2023/05/13 08:26:23;;;;;;;;;;;;;;;29.15;nan;102346.84;5003756;28;19948;-90
2023/05/13 08:28:49;;;;;;;;;;;;;;;29.16;nan;102351.22;5004035;28;19917;-89
2023/05/13 08:31:14;;;;;;;;;;;;;;;29.10;nan;102347.88;5001720;28;19968;-91
2023/05/13 08:33:40;;;;;;;;;;;;;;;29.08;nan;102339.09;4997854;28;19921;-88
2023/05/13 08:36:06;;;;;;;;;;;;;;;29.22;nan;102344.34;5002322;28;20357;-92
2023/05/13 08:38:32;;;;;;;;;;;;;;;29.28;nan;102342.22;4998932;28;19921;-89
2023/05/13 08:40:58;;;;;;;;;;;;;;;29.33;nan;102339.25;5014811;28;19922;-89
2023/05/13 08:43:23;;;;;;;;;;;;;;;29.44;nan;102351.47;4996363;28;20003;-91
2023/05/13 08:45:50;;;;;;;;;;;;;;;29.56;nan;102332.22;4992396;28;19921;-90
2023/05/13 08:48:17;;;;;;;;;;;;;;;29.57;nan;102336.59;4999570;28;19932;-90
2023/05/13 08:50:43;;;;;;;;;;;;;;;29.65;nan;102345.97;5000754;28;19948;-91
2023/05/13 08:53:10;;;;;;;;;;;;;;;29.70;nan;102341.03;4996646;28;19981;-89
2023/05/13 08:55:37;;;;;;;;;;;;;;;29.78;nan;102340.13;4995393;28;20381;-89
2023/05/13 08:58:02;;;;;;;;;;;;;;;29.92;nan;102350.88;4997145;28;19936;-89
2023/05/13 09:00:28;;;;;;;;;;;;;;;29.97;nan;102334.06;4999760;28;19925;-90
2023/05/13 09:02:53;;;;;;;;;;;;;;;30.02;nan;102327.53;5000537;28;19972;-90
2023/05/13 09:05:19;;;;;;;;;;;;;;;30.12;nan;102332.66;4995079;28;19932;-91
2023/05/13 09:07:44;;;;;;;;;;;;;;;30.20;nan;102334.50;4998538;28;19926;-92
2023/05/13 09:10:10;;;;;;;;;;;;;;;30.13;nan;102339.78;4995034;28;20425;-91
2023/05/13 09:12:48;;;;;;;;;;;;;;;30.13;nan;102333.44;4999817;28;19921;-89
2023/05/13 09:15:18;;;;;;;;;;;;;;;30.14;nan;102335.88;4998019;28;20456;-92
2023/05/13 09:17:44;;;;;;;;;;;;;;;30.18;nan;102323.00;4994593;28;19936;-93
2023/05/13 09:20:14;;;;;;;;;;;;;;;30.24;nan;102329.91;4997348;28;20427;-91
2023/05/13 09:22:40;;;;;;;;;;;;;;;30.28;nan;102330.00;4996151;28;19925;-88
2023/05/13 09:25:06;;;;;;;;;;;;;;;30.41;nan;102322.53;4999265;28;19948;-89
2023/05/13 09:27:36;;;;;;;;;;;;;;;30.40;nan;102332.00;4999376;28;19927;-93
2023/05/13 09:30:01;;;;;;;;;;;;;;;30.42;nan;102318.63;5002192;28;19921;-94
2023/05/13 09:32:26;;;;;;;;;;;;;;;30.51;nan;102309.03;4996983;28;19917;-88
2023/05/13 09:34:52;;;;;;;;;;;;;;;30.62;nan;102323.25;4998301;28;19975;-92
2023/05/13 09:37:17;;;;;;;;;;;;;;;30.69;nan;102326.22;4998177;28;20491;-92
2023/05/13 09:39:43;;;;;;;;;;;;;;;30.74;nan;102316.91;5000025;28;20055;-91
2023/05/13 09:42:15;;;;;;;;;;;;;;;30.86;nan;102314.91;4996876;28;19935;-90
2023/05/13 09:44:41;;;;;;;;;;;;;;;30.94;nan;102319.53;4996006;28;20315;-88
2023/05/13 09:47:10;;;;;;;;;;;;;;;31.04;nan;102318.22;4996920;28;20040;-91
2023/05/13 09:49:36;;;;;;;;;;;;;;;31.14;nan;102311.41;4995719;28;20573;-91
2023/05/13 09:52:02;;;;;;;;;;;;;;;31.27;nan;102315.78;4995293;28;20008;-93
2023/05/13 09:54:33;;;;;;;;;;;;;;;31.28;nan;102309.06;4997904;28;19928;-92
2023/05/13 09:57:00;;;;;;;;;;;;;;;31.19;nan;102297.31;5000568;28;20507;-92
2023/05/13 09:59:25;;;;;;;;;;;;;;;31.01;nan;102307.03;4997852;28;19940;-90
2023/05/13 10:01:52;;;;;;;;;;;;;;;30.96;nan;102295.06;4999266;28;19922;-92
2023/05/13 10:04:18;;;;;;;;;;;;;;;30.99;nan;102299.09;4996902;28;19924;-89
2023/05/13 10:06:44;;;;;;;;;;;;;;;31.02;nan;102297.59;5000121;28;19925;-89
2023/05/13 10:09:10;;;;;;;;;;;;;;;30.98;nan;102295.53;4997284;28;20005;-90
2023/05/13 10:11:35;;;;;;;;;;;;;;;31.00;nan;102294.38;4998891;28;20024;-88
2023/05/13 10:14:03;;;;;;;;;;;;;;;31.06;nan;102287.41;4997948;28;19953;-93
2023/05/13 10:16:30;;;;;;;;;;;;;;;31.07;nan;102286.28;4996896;28;20418;-91
2023/05/13 10:18:57;;;;;;;;;;;;;;;30.98;nan;102292.75;5002443;28;19928;-89
2023/05/13 10:21:23;;;;;;;;;;;;;;;30.83;nan;102290.72;5001919;28;19921;-89
2023/05/13 10:23:51;;;;;;;;;;;;;;;30.74;nan;102284.53;5010171;28;19921;-96
2023/05/13 10:26:17;;;;;;;;;;;;;;;30.65;nan;102286.59;5013454;28;19985;-92
2023/05/13 10:28:44;;;;;;;;;;;;;;;30.61;nan;102297.56;5003852;28;19997;-94
2023/05/13 10:31:09;;;;;;;;;;;;;;;30.53;nan;102275.53;5011252;28;19944;-96
2023/05/13 10:33:35;;;;;;;;;;;;;;;30.55;nan;102287.06;5006926;28;20172;-94
2023/05/13 10:36:06;;;;;;;;;;;;;;;30.75;nan;102279.78;5005700;28;19961;-91
2023/05/13 10:38:52;;;;;;;;;;;;;;;31.00;nan;102266.69;5009375;28;20317;-96
2023/05/13 10:41:17;;;;;;;;;;;;;;;31.08;nan;102283.16;5002366;28;19949;-93
2023/05/13 10:43:43;;;;;;;;;;;;;;;31.07;nan;102266.91;5008370;28;19943;-90
2023/05/13 10:46:11;;;;;;;;;;;;;;;31.01;nan;102280.16;5007391;28;19921;-90
2023/05/13 10:48:41;;;;;;;;;;;;;;;31.04;nan;102275.88;5003563;28;19925;-92
2023/05/13 10:51:08;;;;;;;;;;;;;;;31.22;nan;102268.94;5008131;28;19934;-94
2023/05/13 10:53:43;;;;;;;;;;;;;;;31.50;nan;102263.38;4996630;28;20156;-92
2023/05/13 10:56:08;;;;;;;;;;;;;;;31.73;nan;102267.19;5002694;28;19925;-95
2023/05/13 10:58:38;;;;;;;;;;;;;;;31.75;nan;102264.88;4999424;28;20783;-95
2023/05/13 11:01:25;;;;;;;;;;;;;;;31.75;nan;102258.53;5006429;28;19932;-94
2023/05/13 11:03:58;;;;;;;;;;;;;;;31.79;nan;102262.22;5003182;28;20476;-95
2023/05/13 11:06:28;;;;;;;;;;;;;;;31.96;nan;102250.78;5003109;28;20606;-95
2023/05/13 11:08:53;;;;;;;;;;;;;;;32.14;nan;102240.13;5000115;28;19921;-91
2023/05/13 11:11:23;;;;;;;;;;;;;;;32.11;nan;102249.94;5007120;28;19948;-89
2023/05/13 11:13:53;;;;;;;;;;;;;;;32.15;nan;102250.03;5002417;28;19928;-91
2023/05/13 11:16:19;;;;;;;;;;;;;;;32.22;nan;102255.75;5008923;28;19918;-92
2023/05/13 11:18:45;;;;;;;;;;;;;;;32.32;nan;102260.00;5010214;28;19948;-94
2023/05/13 11:21:10;;;;;;;;;;;;;;;32.20;nan;102248.97;5010385;28;20384;-91
2023/05/13 11:23:51;;;;;;;;;;;;;;;31.95;nan;102254.69;5006957;28;19925;-94
2023/05/13 11:26:17;;;;;;;;;;;;;;;31.72;nan;102250.91;5006717;28;19968;-93
2023/05/13 11:28:53;;;;;;;;;;;;;;;31.57;nan;102264.38;5006939;28;19933;-96
2023/05/13 11:31:20;;;;;;;;;;;;;;;31.54;nan;102253.19;5013163;28;19918;-94
2023/05/13 11:34:03;;;;;;;;;;;;;;;31.57;nan;102236.66;5007942;28;20423;-95
2023/05/13 11:36:29;;;;;;;;;;;;;;;31.58;nan;102243.81;5010479;28;19949;-96
2023/05/13 11:39:03;;;;;;;;;;;;;;;31.62;nan;102245.91;5009121;28;20050;-94
2023/05/13 11:41:31;;;;;;;;;;;;;;;31.46;nan;102237.56;5012320;28;20342;-95
2023/05/13 11:43:58;;;;;;;;;;;;;;;31.33;nan;102242.34;5009520;28;19953;-94
2023/05/13 11:46:24;;;;;;;;;;;;;;;31.26;nan;102247.72;5006359;28;19928;-94
2023/05/13 11:48:50;;;;;;;;;;;;;;;31.32;nan;102239.94;5003171;28;19959;-93
2023/05/13 11:51:18;;;;;;;;;;;;;;;31.45;nan;102238.72;5009094;28;19945;-93
2023/05/13 11:53:43;;;;;;;;;;;;;;;31.37;nan;102223.88;5010245;28;19967;-95
2023/05/13 11:56:12;;;;;;;;;;;;;;;31.30;nan;102226.44;5010751;28;19918;-93
2023/05/13 11:58:37;;;;;;;;;;;;;;;31.31;nan;102222.53;5009413;28;19920;-93
2023/05/13 12:01:03;;;;;;;;;;;;;;;31.31;nan;102238.34;5007454;28;19930;-91
2023/05/13 12:03:28;;;;;;;;;;;;;;;31.22;nan;102236.50;5015171;28;19913;-94
2023/05/13 12:06:04;;;;;;;;;;;;;;;31.10;nan;102228.25;5013665;28;20228;-93
2023/05/13 12:08:29;;;;;;;;;;;;;;;31.05;nan;102241.50;5004947;28;20378;-92
2023/05/13 12:10:54;;;;;;;;;;;;;;;30.90;nan;102241.13;5012648;28;19965;-94
2023/05/13 12:13:20;;;;;;;;;;;;;;;30.97;nan;102227.47;5003594;28;19961;-96
2023/05/13 12:15:46;;;;;;;;;;;;;;;31.14;nan;102237.44;4995104;28;19969;-90
2023/05/13 12:18:11;;;;;;;;;;;;;;;31.24;nan;102228.69;5004082;28;20396;-95
2023/05/13 12:20:37;;;;;;;;;;;;;;;31.39;nan;102229.03;5009981;28;19990;-94
2023/05/13 12:23:04;;;;;;;;;;;;;;;31.28;nan;102214.94;5007918;28;20423;-93
2023/05/13 12:25:32;;;;;;;;;;;;;;;31.31;nan;102216.97;5010710;28;19924;-94
2023/05/13 12:27:57;;;;;;;;;;;;;;;31.27;nan;102219.66;5003529;28;19972;-89
2023/05/13 12:30:23;;;;;;;;;;;;;;;31.30;nan;102223.69;5006563;28;19918;-90
2023/05/13 12:32:48;;;;;;;;;;;;;;;31.31;nan;102228.06;5004194;28;19957;-94
2023/05/13 12:35:14;;;;;;;;;;;;;;;31.52;nan;102214.78;5007915;28;20429;-92
2023/05/13 12:37:39;;;;;;;;;;;;;;;31.74;nan;102215.34;5003173;28;20025;-94
2023/05/13 12:40:08;;;;;;;;;;;;;;;31.74;nan;102209.81;5006453;28;20436;-91
2023/05/13 12:42:34;;;;;;;;;;;;;;;31.81;nan;102218.31;5007814;28;19943;-94
2023/05/13 12:44:59;;;;;;;;;;;;;;;32.03;nan;102217.66;5002526;28;20392;-93
2023/05/13 12:47:24;;;;;;;;;;;;;;;32.27;nan;102215.88;5006150;28;19922;-95
2023/05/13 12:49:50;;;;;;;;;;;;;;;32.31;nan;102213.97;5006255;28;19953;-95
2023/05/13 12:52:16;;;;;;;;;;;;;;;32.41;nan;102218.97;5006841;28;19926;-92